Time;durP1;ratioP1;P1;durP2;ratioP2;P2;SDS_P1;SDS_P2;PMS_P1;PMS_P2;Temp;Humidity;BMP_temperature;BMP_pressure;BME280_temperature;BME280_humidity;BME280_pressure;Samples;Min_cycle;Max_cycle;Signal;HPM_P1;HPM_P2
2021/12/03 00:00:18;;;;;;;;;13.25;13.25;;;;;6.98;57.18;101040.84;5059568;28;46440;-45
2021/12/03 00:02:44;;;;;;;;;14.00;10.00;;;;;6.98;57.23;101040.84;5059326;28;45469;-45
2021/12/03 00:05:10;;;;;;;;;11.50;11.50;;;;;6.97;57.23;101033.88;5059591;28;45234;-48
2021/12/03 00:07:37;;;;;;;;;14.00;12.25;;;;;6.97;57.39;101036.50;5061687;28;45329;-45
2021/12/03 00:10:06;;;;;;;;;13.50;11.00;;;;;6.95;57.33;101030.38;5068041;28;47653;-46
2021/12/03 00:12:31;;;;;;;;;14.50;13.75;;;;;6.94;57.21;101020.78;5059261;28;45285;-46
2021/12/03 00:14:57;;;;;;;;;15.50;11.75;;;;;6.93;57.41;101021.66;5058329;28;45312;-46
2021/12/03 00:17:22;;;;;;;;;14.00;11.25;;;;;6.93;57.44;101029.50;5074947;28;45315;-46
2021/12/03 00:19:47;;;;;;;;;17.75;13.25;;;;;6.92;57.49;101028.63;5059364;28;45343;-46
2021/12/03 00:22:13;;;;;;;;;16.75;14.25;;;;;6.83;57.39;101005.94;5059202;28;45208;-49
2021/12/03 00:24:39;;;;;;;;;15.25;15.25;;;;;6.89;57.39;101025.13;5059626;28;45342;-46
2021/12/03 00:27:05;;;;;;;;;19.75;18.00;;;;;6.91;57.37;101037.31;5060033;28;45524;-47
2021/12/03 00:29:30;;;;;;;;;16.00;15.25;;;;;6.92;57.34;101046.06;5061566;28;47235;-46
2021/12/03 00:31:56;;;;;;;;;21.75;17.25;;;;;6.91;57.29;101047.78;5062761;28;45271;-46
2021/12/03 00:34:21;;;;;;;;;20.00;15.75;;;;;6.89;57.45;101035.56;5061829;28;45392;-46
2021/12/03 00:36:46;;;;;;;;;21.75;16.75;;;;;6.87;57.43;101038.19;5062464;28;45423;-46
2021/12/03 00:39:12;;;;;;;;;21.75;15.75;;;;;6.86;57.47;101025.13;5062616;28;45402;-46
2021/12/03 00:41:45;;;;;;;;;25.00;21.25;;;;;6.86;57.38;101035.56;5062452;28;45256;-48
2021/12/03 00:44:11;;;;;;;;;21.50;19.00;;;;;6.84;57.38;101032.91;5062225;28;45394;-44
2021/12/03 00:46:36;;;;;;;;;18.50;17.50;;;;;6.80;57.50;101029.41;5059851;28;45480;-43
2021/12/03 00:49:02;;;;;;;;;15.00;13.75;;;;;6.76;57.20;101029.41;5062442;28;45631;-45
2021/12/03 00:51:28;;;;;;;;;23.25;16.50;;;;;6.77;57.41;101039.00;5062403;28;45495;-48
2021/12/03 00:53:54;;;;;;;;;17.25;14.00;;;;;6.74;57.63;101042.47;5062707;28;45371;-47
2021/12/03 00:56:19;;;;;;;;;21.50;14.75;;;;;6.72;57.35;101044.19;5062256;28;45517;-49
2021/12/03 00:58:45;;;;;;;;;16.25;15.25;;;;;6.70;57.48;101052.88;5062415;28;45395;-47
2021/12/03 01:01:10;;;;;;;;;19.75;15.25;;;;;6.67;57.44;101061.56;5062189;28;45279;-46
2021/12/03 01:03:37;;;;;;;;;17.75;15.00;;;;;6.65;57.46;101060.66;5061026;28;45565;-48
2021/12/03 01:06:03;;;;;;;;;21.00;19.25;;;;;6.62;57.45;101058.03;5062118;28;45442;-47
2021/12/03 01:08:31;;;;;;;;;19.00;14.75;;;;;6.61;57.91;101066.75;5062137;28;45338;-46
2021/12/03 01:10:56;;;;;;;;;16.00;16.00;;;;;6.61;57.50;101069.34;5060459;28;45410;-44
2021/12/03 01:13:22;;;;;;;;;23.25;17.75;;;;;6.57;57.47;101060.63;5061122;28;45221;-44
2021/12/03 01:15:47;;;;;;;;;16.00;15.00;;;;;6.56;57.70;101073.66;5061046;28;45395;-45
2021/12/03 01:18:14;;;;;;;;;19.00;17.25;;;;;6.54;57.66;101081.50;5057478;28;46437;-45
2021/12/03 01:20:42;;;;;;;;;20.75;19.00;;;;;6.51;57.56;101086.69;5057750;28;45434;-44
2021/12/03 01:23:11;;;;;;;;;16.00;13.00;;;;;6.48;57.73;101084.06;5057869;28;45330;-44
2021/12/03 01:25:36;;;;;;;;;21.75;20.75;;;;;6.46;57.69;101083.16;5062879;28;45360;-44
2021/12/03 01:28:02;;;;;;;;;20.00;16.50;;;;;6.44;57.67;101080.53;5070816;27;46127;-45
2021/12/03 01:30:29;;;;;;;;;19.00;19.00;;;;;6.41;57.73;101085.72;5061680;28;45302;-45
2021/12/03 01:32:57;;;;;;;;;16.00;14.25;;;;;6.41;57.66;101085.72;5062053;28;45319;-46
2021/12/03 01:35:22;;;;;;;;;20.00;16.00;;;;;6.38;57.52;101082.19;5054892;28;45446;-45
2021/12/03 01:37:48;;;;;;;;;19.00;18.00;;;;;6.39;57.84;101082.25;5068006;28;47976;-46
2021/12/03 01:40:17;;;;;;;;;20.00;17.25;;;;;6.37;57.60;101083.94;5061496;28;45324;-44
2021/12/03 01:42:45;;;;;;;;;21.25;16.00;;;;;6.37;57.80;101088.31;5060652;28;45344;-44
2021/12/03 01:45:14;;;;;;;;;19.00;18.50;;;;;6.35;57.55;101090.88;5059159;28;45490;-44
2021/12/03 01:47:46;;;;;;;;;24.50;18.50;;;;;6.31;57.71;101076.06;5060127;28;48029;-44
2021/12/03 01:50:12;;;;;;;;;18.50;15.75;;;;;6.31;57.71;101078.69;5061053;28;45769;-49
2021/12/03 01:52:38;;;;;;;;;17.25;17.25;;;;;6.30;57.60;101087.38;5061903;28;45180;-44
2021/12/03 01:55:05;;;;;;;;;19.25;17.75;;;;;6.28;57.87;101089.97;5061332;28;45677;-46
2021/12/03 01:57:31;;;;;;;;;20.75;14.25;;;;;6.27;57.88;101101.25;5061433;28;45263;-45
2021/12/03 01:59:56;;;;;;;;;21.25;19.00;;;;;6.24;57.73;101093.41;5061211;28;45335;-47
2021/12/03 02:02:22;;;;;;;;;16.50;14.50;;;;;6.26;57.85;101093.44;5061611;28;45459;-47
2021/12/03 02:04:48;;;;;;;;;23.50;20.00;;;;;6.24;57.89;101098.63;5059762;28;45629;-48
2021/12/03 02:07:14;;;;;;;;;19.50;16.25;;;;;6.23;57.95;101107.31;5061388;28;45907;-45
2021/12/03 02:09:40;;;;;;;;;19.25;17.75;;;;;6.23;57.80;101101.25;5060598;28;45375;-45
2021/12/03 02:12:05;;;;;;;;;19.75;19.00;;;;;6.21;58.03;101092.50;5054547;28;45517;-45
2021/12/03 02:14:31;;;;;;;;;18.25;17.50;;;;;6.20;57.74;101101.19;5061139;28;45476;-46
2021/12/03 02:16:56;;;;;;;;;17.75;16.50;;;;;6.17;57.80;101108.13;5060971;28;46096;-45
2021/12/03 02:19:22;;;;;;;;;20.75;19.00;;;;;6.13;58.04;101106.34;5059685;28;45244;-44
2021/12/03 02:21:47;;;;;;;;;22.50;19.50;;;;;6.09;57.75;101090.63;5060705;28;45271;-45
2021/12/03 02:24:14;;;;;;;;;23.75;17.25;;;;;6.05;58.02;101084.53;5060868;28;45471;-47
2021/12/03 02:26:41;;;;;;;;;27.75;25.75;;;;;5.99;58.16;101090.56;5060803;28;47297;-47
2021/12/03 02:29:07;;;;;;;;;22.00;19.00;;;;;5.98;58.06;101090.53;5053367;28;45418;-45
2021/12/03 02:31:33;;;;;;;;;26.00;24.00;;;;;5.93;57.83;101093.06;5067970;27;45351;-44
2021/12/03 02:33:58;;;;;;;;;23.00;19.25;;;;;5.89;58.10;101088.69;5066929;28;45564;-44
2021/12/03 02:36:23;;;;;;;;;23.00;20.25;;;;;5.86;58.08;101086.03;5080801;27;45305;-44
2021/12/03 02:38:49;;;;;;;;;24.25;23.00;;;;;5.81;58.30;101083.41;5060685;28;45558;-46
2021/12/03 02:41:15;;;;;;;;;25.00;23.00;;;;;5.82;58.04;101089.47;5061017;28;45506;-44
2021/12/03 02:43:41;;;;;;;;;23.75;23.50;;;;;5.80;57.90;101094.69;5060758;28;45391;-45
2021/12/03 02:46:06;;;;;;;;;26.75;20.25;;;;;5.80;58.19;101083.38;5057163;28;46195;-46
2021/12/03 02:48:35;;;;;;;;;25.50;20.50;;;;;5.77;58.21;101091.16;5060322;28;45203;-47
2021/12/03 02:51:00;;;;;;;;;27.50;26.75;;;;;5.77;58.16;101091.16;5060125;28;45289;-45
2021/12/03 02:53:25;;;;;;;;;24.00;22.75;;;;;5.74;58.30;101092.00;5060501;28;45457;-47
2021/12/03 02:55:51;;;;;;;;;23.00;22.00;;;;;5.73;58.30;101090.25;5071653;28;45927;-46
2021/12/03 02:58:18;;;;;;;;;20.25;18.25;;;;;5.61;58.10;101070.13;5061390;27;45292;-46
2021/12/03 03:00:45;;;;;;;;;22.75;20.50;;;;;5.70;58.15;101085.00;5060123;28;45331;-48
2021/12/03 03:03:10;;;;;;;;;25.25;25.00;;;;;5.72;58.21;101075.44;5060149;28;45455;-45
2021/12/03 03:05:36;;;;;;;;;23.75;22.50;;;;;5.69;58.19;101062.38;5060200;28;45425;-46
2021/12/03 03:08:02;;;;;;;;;17.75;17.75;;;;;5.69;58.57;101060.66;5060313;28;45291;-46
2021/12/03 03:10:30;;;;;;;;;22.25;22.00;;;;;5.69;58.33;101050.22;5059285;28;45309;-45
2021/12/03 03:12:58;;;;;;;;;24.75;23.75;;;;;5.68;58.21;101047.59;5060305;28;45246;-45
2021/12/03 03:15:23;;;;;;;;;21.50;19.00;;;;;5.68;58.44;101055.41;5059406;28;46147;-47
2021/12/03 03:17:50;;;;;;;;;23.25;22.00;;;;;5.68;58.43;101055.41;5060242;28;45294;-45
2021/12/03 03:20:16;;;;;;;;;31.25;28.75;;;;;5.68;58.52;101052.81;5073375;28;45327;-45
2021/12/03 03:22:43;;;;;;;;;21.25;18.50;;;;;5.67;58.36;101051.06;5060385;28;45515;-48
2021/12/03 03:25:12;;;;;;;;;26.25;20.75;;;;;5.66;58.34;101051.91;5059940;28;45319;-46
2021/12/03 03:27:38;;;;;;;;;27.00;21.75;;;;;5.67;58.40;101053.66;5060021;28;45325;-44
2021/12/03 03:30:08;;;;;;;;;25.75;23.25;;;;;5.64;58.62;101046.69;5041838;28;45385;-46
2021/12/03 03:32:33;;;;;;;;;27.00;23.50;;;;;5.64;58.54;101038.88;5058775;28;45490;-45
2021/12/03 03:34:59;;;;;;;;;27.00;25.00;;;;;5.65;58.34;101058.00;5059619;28;45347;-47
2021/12/03 03:37:24;;;;;;;;;27.50;21.00;;;;;5.64;58.72;101053.66;5058200;28;46377;-45
2021/12/03 03:39:50;;;;;;;;;20.50;19.50;;;;;5.60;58.62;101046.66;5059838;28;45822;-46
2021/12/03 03:42:15;;;;;;;;;21.50;21.50;;;;;5.58;58.68;101051.81;5067827;28;45327;-46
2021/12/03 03:44:42;;;;;;;;;21.50;21.25;;;;;5.59;58.50;101055.31;5065159;27;46004;-46
2021/12/03 03:47:08;;;;;;;;;26.00;23.00;;;;;5.56;58.71;101053.56;5058531;28;45601;-45
2021/12/03 03:49:34;;;;;;;;;25.25;24.00;;;;;5.54;58.59;101056.13;5059643;28;45434;-45
2021/12/03 03:52:01;;;;;;;;;25.50;20.25;;;;;5.53;58.86;101051.78;5059940;28;45307;-45
2021/12/03 03:54:27;;;;;;;;;19.25;18.00;;;;;5.49;58.96;101049.13;5041506;28;48498;-45
2021/12/03 03:56:52;;;;;;;;;23.00;20.00;;;;;5.47;58.78;101046.50;5059723;28;45426;-46
2021/12/03 03:59:18;;;;;;;;;21.50;20.00;;;;;5.46;58.69;101047.34;5059833;28;45712;-45
2021/12/03 04:01:45;;;;;;;;;23.00;22.75;;;;;5.43;58.80;101044.69;5061203;28;45240;-45
2021/12/03 04:04:11;;;;;;;;;21.25;20.75;;;;;5.40;58.84;101047.28;5062953;28;46073;-47
2021/12/03 04:06:36;;;;;;;;;25.75;23.50;;;;;5.41;58.76;101046.44;5062055;28;45937;-45
2021/12/03 04:09:02;;;;;;;;;27.00;20.50;;;;;5.40;58.87;101039.47;5063317;28;45399;-46
2021/12/03 04:11:28;;;;;;;;;24.00;21.50;;;;;5.37;58.89;101042.91;5061637;28;45310;-46
2021/12/03 04:13:53;;;;;;;;;22.00;20.25;;;;;5.36;58.78;101037.69;5076204;28;47095;-44
2021/12/03 04:16:19;;;;;;;;;22.00;20.00;;;;;5.28;58.89;101032.38;5063113;28;45328;-44
2021/12/03 04:18:44;;;;;;;;;22.75;20.00;;;;;5.28;59.04;101031.50;5062874;28;45366;-44
2021/12/03 04:21:10;;;;;;;;;21.00;18.25;;;;;5.25;59.17;101031.47;5062955;28;45412;-45
2021/12/03 04:23:35;;;;;;;;;21.75;18.25;;;;;5.23;58.97;101026.22;5063806;28;45540;-45
2021/12/03 04:26:01;;;;;;;;;19.00;18.25;;;;;5.19;59.13;101027.94;5075391;27;45271;-47
2021/12/03 04:28:27;;;;;;;;;23.25;17.75;;;;;5.20;58.86;101031.41;5063016;28;45235;-46
2021/12/03 04:30:52;;;;;;;;;22.00;19.50;;;;;5.19;59.23;101038.34;5062574;28;45532;-44
2021/12/03 04:33:19;;;;;;;;;20.75;18.75;;;;;5.15;59.22;101036.53;5062659;28;45986;-47
2021/12/03 04:35:44;;;;;;;;;25.00;19.00;;;;;5.14;59.21;101045.22;5061420;28;45256;-46
2021/12/03 04:38:10;;;;;;;;;18.00;16.75;;;;;5.14;59.04;101049.56;5062914;28;45226;-44
2021/12/03 04:40:38;;;;;;;;;16.50;14.25;;;;;5.11;58.93;101039.13;5062692;28;45223;-48
2021/12/03 04:43:04;;;;;;;;;18.00;14.75;;;;;5.13;59.00;101032.16;5062731;28;45308;-44
2021/12/03 04:45:30;;;;;;;;;16.25;15.50;;;;;5.11;58.98;101033.91;5062568;28;45256;-45
2021/12/03 04:47:57;;;;;;;;;17.00;14.75;;;;;5.11;59.13;101033.91;5062679;28;45246;-48
2021/12/03 04:50:27;;;;;;;;;20.25;17.00;;;;;5.11;59.29;101045.19;5049350;28;45471;-49
2021/12/03 04:52:53;;;;;;;;;20.75;15.75;;;;;5.11;59.07;101031.28;5063210;28;46368;-46
2021/12/03 04:55:20;;;;;;;;;20.00;17.25;;;;;5.12;59.10;101022.59;5075271;27;45752;-44
2021/12/03 04:57:46;;;;;;;;;17.75;15.50;;;;;5.13;59.11;101029.56;5062554;28;45314;-48
2021/12/03 05:00:17;;;;;;;;;18.50;15.25;;;;;5.11;59.21;101032.16;5062400;28;45181;-45
2021/12/03 05:02:43;;;;;;;;;15.25;14.75;;;;;5.10;59.14;101030.41;5062202;28;46321;-49
2021/12/03 05:05:08;;;;;;;;;17.00;14.75;;;;;5.08;59.16;101032.13;5062075;28;45290;-44
2021/12/03 05:10:03;;;;;;;;;20.75;17.75;;;;;5.04;59.25;101019.91;5061165;28;45466;-44
2021/12/03 05:12:28;;;;;;;;;16.25;14.50;;;;;5.04;59.25;101018.19;5061693;28;46414;-45
2021/12/03 05:14:54;;;;;;;;;17.50;16.25;;;;;5.05;59.22;101014.69;5069898;28;45244;-47
2021/12/03 05:17:19;;;;;;;;;15.50;15.50;;;;;5.07;59.35;101009.53;5066279;27;45738;-45
2021/12/03 05:19:45;;;;;;;;;16.00;13.25;;;;;5.05;59.13;101003.41;5061983;28;45257;-47
2021/12/03 05:22:12;;;;;;;;;16.25;14.25;;;;;5.02;59.31;101003.41;5061793;28;45368;-47
2021/12/03 05:24:37;;;;;;;;;18.00;14.50;;;;;5.01;59.38;101004.25;5061940;28;45355;-47
2021/12/03 05:27:03;;;;;;;;;12.25;12.25;;;;;5.01;59.44;100997.28;5061854;28;45447;-45
2021/12/03 05:29:28;;;;;;;;;15.25;13.75;;;;;5.01;59.42;100996.44;5061996;28;45371;-45
2021/12/03 05:31:54;;;;;;;;;18.00;13.75;;;;;5.00;59.46;100995.53;5075108;28;46104;-47
2021/12/03 05:34:20;;;;;;;;;17.50;15.25;;;;;4.97;59.24;100992.00;5061813;28;45248;-47
2021/12/03 05:36:46;;;;;;;;;16.25;14.00;;;;;4.96;59.71;100996.38;5061340;28;45377;-45
2021/12/03 05:39:12;;;;;;;;;18.00;15.00;;;;;4.96;59.31;101006.78;5061425;28;45441;-45
2021/12/03 05:41:38;;;;;;;;;14.00;14.00;;;;;4.93;59.71;100991.13;5061524;28;45288;-46
2021/12/03 05:44:04;;;;;;;;;13.50;12.50;;;;;4.92;59.55;100984.16;5061782;28;45196;-46
2021/12/03 05:46:29;;;;;;;;;14.75;13.00;;;;;4.90;59.70;100982.41;5058128;28;45427;-46
2021/12/03 05:48:55;;;;;;;;;14.25;13.00;;;;;4.89;59.63;100986.72;5061434;28;45458;-49
2021/12/03 05:51:20;;;;;;;;;13.25;12.50;;;;;4.86;59.41;100987.53;5061068;28;46112;-47
2021/12/03 05:53:46;;;;;;;;;13.25;13.25;;;;;4.88;59.38;100988.47;5060257;28;45245;-45
2021/12/03 05:56:11;;;;;;;;;13.00;12.50;;;;;4.87;59.95;100986.69;5061750;28;45495;-46
2021/12/03 05:58:36;;;;;;;;;19.25;14.25;;;;;4.84;59.45;100986.69;5061463;28;45321;-45
2021/12/03 06:01:02;;;;;;;;;13.25;13.00;;;;;4.85;59.54;100980.59;5061106;28;46004;-46
2021/12/03 06:03:27;;;;;;;;;14.25;12.50;;;;;4.85;59.51;100971.91;5061221;28;45356;-47
2021/12/03 06:05:53;;;;;;;;;14.00;12.50;;;;;4.87;59.56;100976.28;5061237;28;45358;-46
2021/12/03 06:08:18;;;;;;;;;12.25;12.25;;;;;4.88;59.47;100965.00;5061466;28;45513;-49
2021/12/03 06:10:44;;;;;;;;;15.25;14.00;;;;;4.91;59.66;100952.91;5059514;28;45366;-46
2021/12/03 06:13:10;;;;;;;;;17.00;15.75;;;;;4.90;59.59;100938.13;5061239;28;45289;-46
2021/12/03 06:15:35;;;;;;;;;14.00;12.00;;;;;4.88;59.91;100945.91;5061393;28;45410;-48
2021/12/03 06:18:00;;;;;;;;;16.25;13.00;;;;;4.86;59.72;100952.84;5061185;28;45406;-49
2021/12/03 06:20:26;;;;;;;;;16.25;14.00;;;;;4.86;59.87;100960.63;5060660;28;45445;-47
2021/12/03 06:22:51;;;;;;;;;15.00;12.50;;;;;4.88;59.77;100967.63;5061414;28;45284;-48
2021/12/03 06:25:17;;;;;;;;;13.75;11.75;;;;;4.89;59.82;100968.47;5060424;28;45318;-50
2021/12/03 06:27:43;;;;;;;;;16.50;13.75;;;;;4.94;59.97;100971.16;5057267;28;45404;-48
2021/12/03 06:30:12;;;;;;;;;9.00;7.25;;;;;4.94;59.90;100976.38;5058613;28;45407;-47
2021/12/03 06:32:40;;;;;;;;;13.75;13.00;;;;;4.93;59.98;100972.00;5061200;28;45429;-47
2021/12/03 06:35:07;;;;;;;;;12.75;12.75;;;;;4.94;59.98;100981.56;5060558;28;45337;-47
2021/12/03 06:37:33;;;;;;;;;14.00;11.75;;;;;4.94;59.88;100977.22;5060282;28;45216;-45
2021/12/03 06:39:59;;;;;;;;;12.75;12.00;;;;;4.95;59.86;100972.91;5060557;28;46453;-46
2021/12/03 06:42:25;;;;;;;;;18.25;13.25;;;;;4.96;59.87;100977.28;5059284;28;45419;-45
2021/12/03 06:44:50;;;;;;;;;14.50;12.50;;;;;4.93;59.96;100969.41;5057380;28;45193;-48
2021/12/03 06:47:15;;;;;;;;;12.75;12.00;;;;;4.90;59.91;100970.25;5060780;28;45339;-45
2021/12/03 06:49:41;;;;;;;;;11.25;11.00;;;;;4.89;60.10;100971.09;5060353;28;45438;-46
2021/12/03 06:52:10;;;;;;;;;13.25;11.50;;;;;4.88;60.05;100967.63;5060791;28;45320;-46
2021/12/03 06:54:36;;;;;;;;;17.25;13.50;;;;;4.88;59.87;100978.03;5073783;28;45365;-45
2021/12/03 06:57:06;;;;;;;;;13.75;11.25;;;;;4.92;60.01;100973.75;5058914;28;45683;-47
2021/12/03 06:59:32;;;;;;;;;11.00;9.50;;;;;4.91;60.07;100976.34;5059959;28;46273;-47
2021/12/03 07:01:58;;;;;;;;;15.25;13.00;;;;;4.86;60.07;100958.91;5058920;28;45571;-49
2021/12/03 07:04:23;;;;;;;;;12.50;8.50;;;;;4.87;60.01;100963.25;5058771;28;45245;-48
2021/12/03 07:06:49;;;;;;;;;16.00;14.50;;;;;4.87;59.98;100965.88;5060472;28;45291;-47
2021/12/03 07:09:15;;;;;;;;;11.50;11.50;;;;;4.90;60.17;100959.81;5060063;28;46535;-48
2021/12/03 07:11:41;;;;;;;;;6.00;6.00;;;;;4.89;60.21;100960.66;5068300;28;45370;-48
2021/12/03 07:14:06;;;;;;;;;8.75;8.25;;;;;4.90;59.88;100961.56;5064490;27;45572;-46
2021/12/03 07:16:32;;;;;;;;;14.75;12.75;;;;;4.88;60.13;100967.63;5060096;28;45314;-47
2021/12/03 07:18:58;;;;;;;;;15.50;13.25;;;;;4.85;60.36;100969.31;5059763;27;45366;-45
2021/12/03 07:21:24;;;;;;;;;15.50;11.75;;;;;4.85;60.34;100962.34;5058983;28;45254;-47
2021/12/03 07:23:51;;;;;;;;;12.75;10.75;;;;;4.83;60.29;100958.88;5059925;28;45381;-49
2021/12/03 07:26:21;;;;;;;;;8.75;8.75;;;;;4.81;60.18;100950.16;5060299;28;45381;-47
2021/12/03 07:28:46;;;;;;;;;11.50;8.25;;;;;4.81;60.50;100950.16;5059850;28;46093;-46
2021/12/03 07:31:12;;;;;;;;;11.00;11.00;;;;;4.82;60.31;100949.31;5060192;28;45271;-49
2021/12/03 07:33:38;;;;;;;;;13.00;13.00;;;;;4.82;60.38;100949.31;5059804;28;45345;-47
2021/12/03 07:36:07;;;;;;;;;13.00;12.00;;;;;4.80;60.19;100948.41;5058883;28;45239;-47
2021/12/03 07:38:34;;;;;;;;;17.00;13.00;;;;;4.84;60.51;100949.31;5059656;28;46209;-46
2021/12/03 07:40:59;;;;;;;;;16.25;13.25;;;;;4.84;60.35;100955.41;5058522;28;45379;-50
2021/12/03 07:43:25;;;;;;;;;14.00;14.00;;;;;4.81;60.48;100954.50;5059995;28;45240;-49
2021/12/03 07:45:51;;;;;;;;;17.75;16.50;;;;;4.81;60.36;100951.91;5058579;28;46163;-47
2021/12/03 07:48:17;;;;;;;;;14.75;14.25;;;;;4.86;60.55;100952.84;5059663;28;46200;-50
2021/12/03 07:50:43;;;;;;;;;17.00;12.50;;;;;4.85;60.14;100953.69;5059672;28;45313;-48
2021/12/03 07:53:14;;;;;;;;;15.75;12.00;;;;;4.84;60.31;100958.03;5059849;28;45328;-48
2021/12/03 07:55:39;;;;;;;;;5.50;2.00;;;;;4.83;60.42;100956.28;5059758;28;45414;-46
2021/12/03 07:58:05;;;;;;;;;9.00;9.00;;;;;4.83;60.49;100958.88;5059376;28;46217;-46
2021/12/03 08:00:30;;;;;;;;;14.50;14.50;;;;;4.86;60.46;100961.50;5059688;28;45379;-44
2021/12/03 08:02:56;;;;;;;;;14.50;14.50;;;;;4.89;60.53;100952.84;5058453;28;45348;-47
2021/12/03 08:05:21;;;;;;;;;13.75;13.00;;;;;4.91;60.39;100953.75;5059621;28;45399;-48
2021/12/03 08:07:49;;;;;;;;;18.25;13.75;;;;;4.94;60.41;100945.09;5059456;28;46726;-45
2021/12/03 08:10:15;;;;;;;;;12.00;8.00;;;;;4.92;60.40;100946.81;5058364;28;45283;-47
2021/12/03 08:12:44;;;;;;;;;14.00;12.75;;;;;4.92;60.55;100950.31;5059636;28;45284;-45
2021/12/03 08:15:10;;;;;;;;;13.25;11.25;;;;;4.93;60.53;100954.66;5058374;28;45439;-46
2021/12/03 08:17:36;;;;;;;;;20.00;18.00;;;;;4.96;60.83;100954.69;5059234;28;46210;-46
2021/12/03 08:20:04;;;;;;;;;16.50;14.75;;;;;5.01;60.65;100944.34;5059320;28;45301;-44
2021/12/03 08:22:30;;;;;;;;;15.25;13.75;;;;;5.04;60.39;100953.06;5059208;28;45399;-45
2021/12/03 08:24:55;;;;;;;;;18.00;13.25;;;;;5.04;60.57;100953.06;5059302;28;45232;-45
2021/12/03 08:27:21;;;;;;;;;11.75;10.50;;;;;5.02;60.53;100956.50;5059264;28;46155;-49
2021/12/03 08:29:46;;;;;;;;;12.25;9.00;;;;;5.08;60.78;100966.13;5059513;28;45273;-44
2021/12/03 08:32:12;;;;;;;;;9.75;9.75;;;;;5.08;60.77;100953.97;5059448;28;45359;-44
2021/12/03 08:34:38;;;;;;;;;11.75;11.00;;;;;5.08;60.65;100959.19;5059226;28;45545;-45
2021/12/03 08:37:06;;;;;;;;;11.75;11.75;;;;;5.12;60.72;100954.84;5059059;28;45336;-45
2021/12/03 08:39:31;;;;;;;;;12.75;12.50;;;;;5.19;60.55;100961.91;5059170;28;45435;-47
2021/12/03 08:41:57;;;;;;;;;8.00;7.25;;;;;5.20;60.49;100946.28;5059226;28;45655;-49
2021/12/03 08:44:23;;;;;;;;;9.00;9.00;;;;;5.17;60.96;100943.66;5059164;28;45190;-46
2021/12/03 08:46:57;;;;;;;;;12.25;11.50;;;;;5.18;60.87;100940.19;5059119;28;46126;-45
2021/12/03 08:49:34;;;;;;;;;10.00;9.50;;;;;5.23;60.75;100937.63;5062509;28;45470;-49
2021/12/03 08:54:53;;;;;;;;;10.00;9.50;;;;;5.31;60.72;100945.53;5062281;28;45246;-48
2021/12/03 08:57:25;;;;;;;;;9.75;9.75;;;;;5.34;60.74;100958.59;5062379;28;47157;-45
2021/12/03 08:59:53;;;;;;;;;16.00;10.00;;;;;5.32;60.86;100955.09;5062308;28;45271;-45
2021/12/03 09:02:18;;;;;;;;;9.50;8.00;;;;;5.34;60.74;100958.59;5062318;28;45305;-46
2021/12/03 09:04:44;;;;;;;;;13.25;12.00;;;;;5.34;60.65;100950.78;5066891;28;45424;-46
2021/12/03 09:07:10;;;;;;;;;72.75;55.75;;;;;5.35;60.82;100948.19;5070571;27;46153;-47
2021/12/03 09:09:35;;;;;;;;;13.00;11.50;;;;;5.34;60.86;100945.56;5061932;28;45220;-48
2021/12/03 09:12:01;;;;;;;;;11.00;10.25;;;;;5.34;60.62;100945.56;5061189;28;45250;-48
2021/12/03 09:14:36;;;;;;;;;12.00;9.75;;;;;5.35;60.97;100942.09;5060821;28;45179;-46
2021/12/03 09:17:20;;;;;;;;;9.25;7.50;;;;;5.39;60.80;100938.66;5062145;28;47003;-44
2021/12/03 09:20:16;;;;;;;;;11.00;11.00;;;;;5.38;60.70;100934.31;5051055;28;45306;-44
2021/12/03 09:22:38;;;;;;;;;15.75;11.25;;;;;5.41;60.90;100936.06;5061627;28;45229;-44
2021/12/03 09:25:06;;;;;;;;;16.50;13.50;;;;;5.41;60.93;100939.56;5061949;28;45256;-46
2021/12/03 09:27:32;;;;;;;;;10.25;9.00;;;;;5.42;60.95;100928.28;5048331;28;46341;-45
2021/12/03 09:29:58;;;;;;;;;13.00;10.50;;;;;5.42;60.70;100933.50;5060599;28;45334;-44
2021/12/03 09:32:28;;;;;;;;;15.00;13.00;;;;;5.47;60.56;100926.59;5048770;28;45331;-45
2021/12/03 09:34:55;;;;;;;;;13.00;9.25;;;;;5.43;60.99;100929.16;5061680;28;45239;-45
2021/12/03 09:37:20;;;;;;;;;14.50;11.75;;;;;5.44;60.76;100926.53;5061657;28;46612;-45
2021/12/03 09:39:46;;;;;;;;;16.75;11.50;;;;;5.50;60.82;100921.41;5061702;28;45305;-48
2021/12/03 09:42:18;;;;;;;;;7.50;6.75;;;;;5.56;60.64;100912.78;5061968;28;45379;-49
2021/12/03 09:44:45;;;;;;;;;11.50;9.50;;;;;5.57;60.69;100924.94;5061631;28;45281;-46
2021/12/03 09:47:13;;;;;;;;;14.75;13.00;;;;;5.57;60.85;100908.41;5061363;28;46322;-49
2021/12/03 09:49:39;;;;;;;;;15.25;13.50;;;;;5.60;60.69;100903.25;5060166;28;45430;-49
2021/12/03 09:52:32;;;;;;;;;13.25;10.00;;;;;5.63;60.88;100900.66;5060465;28;45442;-44
2021/12/03 09:55:02;;;;;;;;;10.75;10.50;;;;;5.60;60.94;100896.28;5061230;28;45458;-45
2021/12/03 10:13:51;;;;;;;;;8.50;7.25;;;;;5.62;60.70;100894.59;5074044;28;45286;-47
2021/12/03 10:39:07;;;;;;;;;10.25;8.25;;;;;5.49;61.40;100851.00;5060841;28;45320;-48
2021/12/03 10:44:15;;;;;;;;;9.00;9.00;;;;;5.39;61.72;100831.81;5060803;28;45476;-45
2021/12/03 10:49:38;;;;;;;;;11.50;8.00;;;;;5.31;61.53;100829.13;5060652;28;45532;-46
2021/12/03 10:52:20;;;;;;;;;9.00;9.00;;;;;5.32;61.82;100814.34;5048185;28;45448;-45
2021/12/03 11:45:52;;;;;;;;;7.50;7.00;;;;;4.61;63.35;100725.16;5059665;28;46134;-47
2021/12/03 11:54:57;;;;;;;;;9.25;9.25;;;;;4.64;63.27;100704.34;5059875;28;45362;-45
2021/12/03 13:11:06;;;;;;;;;6.00;5.00;;;;;4.42;65.50;100557.56;5061033;28;46070;-44
2021/12/03 14:30:02;;;;;;;;;4.50;3.75;;;;;4.80;66.36;100430.25;5061427;28;45226;-48
2021/12/03 14:44:25;;;;;;;;;5.00;4.50;;;;;4.91;66.86;100400.81;5060818;28;45261;-45
2021/12/03 14:49:43;;;;;;;;;8.00;8.00;;;;;4.97;66.89;100392.97;5060542;28;45271;-46
2021/12/03 14:52:48;;;;;;;;;2.25;2.25;;;;;4.98;66.85;100385.19;5044373;28;47370;-45
2021/12/03 14:55:06;;;;;;;;;7.75;3.00;;;;;5.00;66.93;100387.78;5057121;28;45344;-46
2021/12/03 14:57:49;;;;;;;;;10.50;7.00;;;;;5.02;66.91;100381.72;5060753;28;45268;-46
2021/12/03 15:19:56;;;;;;;;;6.00;3.50;;;;;5.12;67.04;100335.75;5048244;28;45430;-47
2021/12/03 15:27:52;;;;;;;;;4.00;4.00;;;;;5.18;67.20;100340.97;5060085;28;45352;-44
2021/12/03 15:38:05;;;;;;;;;4.00;4.00;;;;;5.22;67.60;100326.22;5060014;28;45399;-46
2021/12/03 15:54:50;;;;;;;;;7.00;4.00;;;;;5.30;67.58;100305.38;5059824;28;45307;-49
2021/12/03 16:04:46;;;;;;;;;6.50;6.50;;;;;5.35;67.64;100301.03;5063062;28;45307;-46
2021/12/03 16:07:21;;;;;;;;;10.25;8.25;;;;;5.35;67.76;100301.03;5063318;28;46065;-47
2021/12/03 16:18:32;;;;;;;;;8.50;7.00;;;;;5.47;67.75;100269.75;5050293;28;45362;-44
2021/12/03 16:52:39;;;;;;;;;4.00;3.00;;;;;5.64;67.96;100194.09;5062739;28;45213;-47
2021/12/03 16:55:04;;;;;;;;;6.00;4.00;;;;;5.65;67.76;100192.38;5062527;28;45371;-46
2021/12/03 16:57:35;;;;;;;;;8.50;7.25;;;;;5.65;67.83;100185.41;5061187;28;45300;-50
2021/12/03 17:00:15;;;;;;;;;4.50;4.50;;;;;5.69;67.97;100183.69;5062340;28;47097;-46
2021/12/03 17:02:51;;;;;;;;;3.00;3.00;;;;;5.72;68.06;100173.22;5062230;28;45463;-48
2021/12/03 17:44:12;;;;;;;;;7.00;7.00;;;;;5.94;67.73;100134.03;5061633;28;45444;-48
2021/12/03 17:48:15;;;;;;;;;6.25;3.50;;;;;6.01;67.95;100117.50;5061737;28;45435;-47
2021/12/03 17:53:28;;;;;;;;;7.25;7.00;;;;;6.03;67.95;100105.31;5061439;28;45979;-47
2021/12/03 18:54:57;;;;;;;;;11.25;10.50;;;;;6.38;68.28;99983.31;5060629;28;45436;-49
2021/12/03 18:57:28;;;;;;;;;8.00;8.00;;;;;6.38;68.23;99984.19;5060648;28;46106;-45
2021/12/03 18:59:56;;;;;;;;;9.00;8.00;;;;;6.42;68.20;99975.44;5060764;28;45203;-45
2021/12/03 19:02:23;;;;;;;;;9.50;9.00;;;;;6.44;68.39;99973.69;5060677;28;45489;-46
2021/12/03 19:05:03;;;;;;;;;8.00;8.00;;;;;6.45;68.29;99967.59;5060195;28;45318;-46
2021/12/03 19:07:34;;;;;;;;;9.50;8.75;;;;;6.47;68.29;99975.41;5060423;28;47837;-49